createdAt,value
2019-03-30T00:09:28.702Z,64.6
2019-03-30T00:19:35.416Z,65.2
2019-03-30T00:29:38.874Z,65.4
2019-03-30T00:39:42.311Z,65.6
2019-03-30T00:49:50.330Z,65
2019-03-30T00:59:53.785Z,65.7
2019-03-30T01:09:57.206Z,66.7
2019-03-30T01:20:03.819Z,67.3
2019-03-30T01:30:07.397Z,67.3
2019-03-30T01:40:10.818Z,67.3
2019-03-30T01:50:18.281Z,67.5
2019-03-30T02:00:21.808Z,68
2019-03-30T02:10:25.221Z,68.6
2019-03-30T02:20:31.298Z,69.1
2019-03-30T02:30:34.753Z,69.6
2019-03-30T02:40:38.255Z,69.7
2019-03-30T02:50:50.861Z,69.5
2019-03-30T03:00:54.437Z,70.1
2019-03-30T03:10:58.003Z,70.1
2019-03-30T03:21:08.809Z,70.2
2019-03-30T03:31:12.609Z,70.2
2019-03-30T03:41:16.096Z,70.7
2019-03-30T03:51:26.873Z,70.9
2019-03-30T04:01:30.437Z,71.5
2019-03-30T04:11:33.925Z,71.4
2019-03-30T04:21:45.039Z,71.5
2019-03-30T04:31:48.611Z,73.5
2019-03-30T04:41:52.123Z,73.4
2019-03-30T04:51:58.311Z,72.7
2019-03-30T05:02:01.826Z,71.4
2019-03-30T05:12:05.285Z,72.6
2019-03-30T05:22:16.556Z,72.9
2019-03-30T05:32:20.353Z,72.7
2019-03-30T05:42:23.773Z,71.5
2019-03-30T05:52:27.308Z,71.5
2019-03-30T06:02:30.752Z,66.1
2019-03-30T06:12:34.226Z,61.5
2019-03-30T06:22:40.961Z,59.4
2019-03-30T06:32:44.532Z,55.9
2019-03-30T06:42:47.957Z,52.7
2019-03-30T06:52:58.962Z,33.8
2019-03-30T07:03:02.545Z,24.1
2019-03-30T07:13:05.980Z,22.4
2019-03-30T07:23:12.954Z,21.9
2019-03-30T07:33:16.461Z,22.4
2019-03-30T07:43:19.893Z,20.5
2019-03-30T07:53:27.225Z,18
2019-03-30T08:03:30.686Z,17.3
2019-03-30T08:13:34.155Z,16.2
2019-03-30T08:23:40.968Z,16.3
2019-03-30T08:33:44.462Z,19.7
2019-03-30T08:43:47.941Z,24.1
2019-03-30T08:53:55.261Z,26
2019-03-30T09:03:58.730Z,27.4
2019-03-30T09:14:02.213Z,28.6
2019-03-30T09:24:10.518Z,29
2019-03-30T09:34:14.053Z,29.6
2019-03-30T09:44:17.446Z,31
2019-03-30T09:54:24.391Z,31.3
2019-03-30T10:04:27.866Z,32.1
2019-03-30T10:14:31.321Z,32.8
2019-03-30T10:20:51.269Z,32
2019-03-30T10:23:07.889Z,31.8
2019-03-30T10:33:11.286Z,32.4
2019-03-30T10:43:14.742Z,33.6
2019-03-30T10:53:18.171Z,33.8
2019-03-30T11:03:21.615Z,35
2019-03-30T11:13:25.058Z,34.6
2019-03-30T11:23:28.561Z,36.2
2019-03-30T11:33:32.065Z,34.9
2019-03-30T11:43:35.478Z,32.5
2019-03-30T11:53:38.884Z,30.9
2019-03-30T12:03:42.337Z,27.6
2019-03-30T12:13:45.785Z,27.8
2019-03-30T12:23:49.213Z,29.2
2019-03-30T12:33:52.635Z,27
2019-03-30T12:43:56.082Z,29
2019-03-30T12:53:59.505Z,26.2
2019-03-30T13:04:02.929Z,26.2
2019-03-30T13:14:06.379Z,27.3
2019-03-30T13:24:09.835Z,23.4
2019-03-30T13:34:13.262Z,22.6
2019-03-30T13:44:16.747Z,22.7
2019-03-30T13:54:20.246Z,21.8
2019-03-30T14:04:23.723Z,21.2
2019-03-30T14:14:27.155Z,21.7
2019-03-30T14:24:30.607Z,22.4
2019-03-30T14:34:34.043Z,21.6
2019-03-30T14:44:37.602Z,22.2
2019-03-30T14:54:53.335Z,22.8
2019-03-30T15:04:56.892Z,21.3
2019-03-30T15:15:04.029Z,21.1
2019-03-30T15:25:07.465Z,21.6
2019-03-30T15:35:11.874Z,20.3
2019-03-30T15:45:15.294Z,19.7
2019-03-30T15:55:18.731Z,21.2
2019-03-30T16:05:22.183Z,21.6
2019-03-30T16:15:25.608Z,21.3
2019-03-30T16:25:29.062Z,21.8
2019-03-30T16:35:32.501Z,21.1
2019-03-30T16:45:35.961Z,22.1
2019-03-30T16:55:39.405Z,22.8
2019-03-30T17:05:42.903Z,23.1
2019-03-30T17:15:46.372Z,22.4
2019-03-30T17:25:49.789Z,23.2
2019-03-30T17:35:53.201Z,22.7
2019-03-30T17:45:56.631Z,22.9
2019-03-30T17:56:02.242Z,24.9
2019-03-30T18:06:05.806Z,27.8
2019-03-30T18:16:09.256Z,28.5
2019-03-30T18:26:12.714Z,29.6
2019-03-30T18:36:16.161Z,30.1
2019-03-30T18:46:19.600Z,32.4
2019-03-30T18:56:23.015Z,32.6
2019-03-30T19:06:26.470Z,33.9
2019-03-30T19:16:29.927Z,35.1
2019-03-30T19:26:33.378Z,36.6
2019-03-30T19:36:36.915Z,37.1
2019-03-30T19:46:40.357Z,36.9
2019-03-30T19:56:43.787Z,38
2019-03-30T20:06:47.253Z,37.6
2019-03-30T20:16:50.759Z,38.3
2019-03-30T20:26:54.222Z,37.9
2019-03-30T20:36:57.661Z,37.8
2019-03-30T20:47:01.082Z,38.4
2019-03-30T20:57:04.513Z,38.6
2019-03-30T21:07:08.003Z,38.6
2019-03-30T21:17:11.429Z,39.4
2019-03-30T21:27:14.878Z,39.9
2019-03-30T21:37:18.325Z,39.7
2019-03-30T21:47:21.783Z,39.9
2019-03-30T21:57:25.222Z,40.1
2019-03-30T22:07:28.636Z,40.4
2019-03-30T22:17:32.059Z,41.4
2019-03-30T22:27:35.506Z,41.6
2019-03-30T22:37:38.965Z,41.6
2019-03-30T22:47:42.411Z,43.9
2019-03-30T22:57:45.897Z,46.1
2019-03-30T23:07:49.360Z,47.6
2019-03-30T23:17:52.793Z,45.1
2019-03-30T23:27:56.246Z,45.2
2019-03-30T23:37:59.709Z,47.2
2019-03-30T23:48:03.164Z,47.8
2019-03-30T23:58:06.599Z,48.1
